Weather at Trenton Mercer Airport

Public forecast

Using degrees Fahrenheit for public forecast. Weather courtesy of forecast.io.

Current aviation weather report (METAR) for Trenton Mercer Airport

Retrieved 2020/09/30 02:53 UTC (22 minutes ago):

KTTN 300253Z AUTO 17010KT 5SM -RA BR OVC008 22/21 A2963 RMK AO2 CIG 004V011 SLP028 P0002 60003 T02170211 58035

Aviation forecast (TAF) for Trenton Mercer Airport

Retrieved 2020-09-30 00:24 UTC (3 hours ago):

TAF KTTN 292321Z 3000/3024 14008KT 4SM SHRA BR SCT006 OVC012 TEMPO 3000/3003 2SM -SHRA BR OVC006 FM300300 VRB05KT 2SM +SHRA OVC004 FM300700 25006KT 5SM -SHRA BR SCT004 OVC012 FM301000 27007KT 6SM BR BKN015 OVC030 FM301500 29014G22KT P6SM SCT030 SCT200